Time;durP1;ratioP1;P1;durP2;ratioP2;P2;SDS_P1;SDS_P2;PMS_P1;PMS_P2;Temp;Humidity;BMP_temperature;BMP_pressure;BME280_temperature;BME280_humidity;BME280_pressure;Samples;Min_cycle;Max_cycle;Signal;HPM_P1;HPM_P2
2022/05/13 00:01:25;;;;;;;12.18;3.12;;;;;;;16.15;63.25;100771.23;1809385;78;20904;-82
2022/05/13 00:03:51;;;;;;;9.68;3.92;;;;;;;16.13;64.01;100766.91;1809496;78;20955;-82
2022/05/13 00:06:17;;;;;;;10.85;3.37;;;;;;;16.12;63.97;100765.85;1809407;79;20908;-82
2022/05/13 00:08:43;;;;;;;11.78;4.00;;;;;;;16.06;64.82;100764.27;1809341;78;20961;-81
2022/05/13 00:11:10;;;;;;;12.88;3.90;;;;;;;16.06;64.82;100764.27;1809289;78;21888;-82
2022/05/13 00:13:37;;;;;;;13.00;4.70;;;;;;;16.04;65.57;100771.38;1809165;78;20973;-82
2022/05/13 00:16:05;;;;;;;12.63;4.33;;;;;;;16.01;66.39;100765.17;1809282;79;20976;-82
2022/05/13 00:18:32;;;;;;;15.70;4.70;;;;;;;15.87;66.83;100746.59;1818543;77;20964;-82
2022/05/13 00:20:58;;;;;;;19.98;5.62;;;;;;;16.01;67.37;100772.52;1820723;78;21015;-82
2022/05/13 00:23:25;;;;;;;15.72;5.90;;;;;;;16.01;68.28;100771.16;1820260;78;21173;-82
2022/05/13 00:25:51;;;;;;;20.02;6.33;;;;;;;15.97;69.04;100766.86;1820048;78;20909;-82
2022/05/13 00:28:17;;;;;;;16.67;6.75;;;;;;;15.90;69.59;100760.95;1820649;78;20966;-81
2022/05/13 00:30:48;;;;;;;25.05;7.35;;;;;;;16.03;69.90;100782.00;1820641;78;20911;-81
2022/05/13 00:33:16;;;;;;;21.02;6.22;;;;;;;16.03;69.80;100781.17;1820288;78;20968;-82
2022/05/13 00:35:42;;;;;;;20.68;6.47;;;;;;;16.06;69.80;100782.78;1820531;78;21090;-82
2022/05/13 00:38:09;;;;;;;18.95;6.15;;;;;;;16.07;70.19;100777.59;1820506;78;20933;-81
2022/05/13 00:40:36;;;;;;;19.45;5.80;;;;;;;16.07;70.52;100788.47;1820507;78;21013;-82
2022/05/13 00:43:07;;;;;;;17.80;5.60;;;;;;;16.08;71.02;100791.98;1820818;77;20936;-82
2022/05/13 00:45:34;;;;;;;15.55;5.72;;;;;;;16.09;71.52;100783.55;1806457;79;21004;-81
2022/05/13 00:48:01;;;;;;;14.90;5.62;;;;;;;16.10;71.34;100790.60;1806662;79;21154;-82
2022/05/13 00:50:31;;;;;;;15.85;5.55;;;;;;;16.10;72.34;100792.52;1779623;79;20959;-81
2022/05/13 00:52:57;;;;;;;16.17;5.17;;;;;;;15.99;72.64;100775.52;1806296;79;21400;-81
2022/05/13 00:55:34;;;;;;;17.45;4.83;;;;;;;15.99;72.64;100775.52;1806606;79;20853;-82
2022/05/13 00:58:01;;;;;;;13.13;5.08;;;;;;;16.09;73.79;100782.20;1802925;79;21063;-81
2022/05/13 01:00:27;;;;;;;14.03;4.22;;;;;;;16.00;74.41;100760.01;1806465;79;21110;-82
2022/05/13 01:02:53;;;;;;;11.28;4.05;;;;;;;16.04;74.24;100763.22;1806489;79;21011;-83
2022/05/13 01:05:20;;;;;;;16.40;4.03;;;;;;;16.19;75.94;100776.36;1779778;79;20984;-83
2022/05/13 01:07:46;;;;;;;9.08;3.60;;;;;;;16.22;76.44;100777.94;1806369;79;20959;-82
2022/05/13 01:10:17;;;;;;;15.40;3.60;;;;;;;16.26;76.73;100776.80;1806337;79;20964;-81
2022/05/13 01:12:50;;;;;;;12.30;4.15;;;;;;;16.29;77.36;100774.84;1802729;79;21899;-82
2022/05/13 01:15:26;;;;;;;11.85;4.08;;;;;;;16.33;78.12;100771.26;1806349;79;21071;-82
2022/05/13 01:18:06;;;;;;;10.18;4.33;;;;;;;16.40;78.70;100772.24;1804942;79;21070;-81
2022/05/13 01:20:42;;;;;;;17.50;5.12;;;;;;;16.42;79.53;100771.41;1803400;79;21027;-82
2022/05/13 01:23:15;;;;;;;14.35;4.70;;;;;;;16.45;79.33;100770.81;1803471;79;21546;-82
2022/05/13 01:25:46;;;;;;;13.40;4.35;;;;;;;16.47;79.35;100782.22;1800143;79;21885;-82
2022/05/13 01:28:18;;;;;;;11.93;3.90;;;;;;;16.49;80.98;100777.27;1803623;79;21055;-83
2022/05/13 01:30:52;;;;;;;14.10;4.00;;;;;;;16.42;88.44;100759.16;1803864;79;21386;-82
2022/05/13 01:33:18;;;;;;;10.25;3.37;;;;;;;16.54;93.79;100756.80;1803709;79;20991;-82
2022/05/13 01:35:50;;;;;;;26.07;4.08;;;;;;;16.53;92.80;100735.31;1777196;79;20979;-81
2022/05/13 01:38:19;;;;;;;14.03;4.03;;;;;;;16.49;100.00;100747.91;1803662;79;21311;-82
2022/05/13 01:40:45;;;;;;;10.53;4.20;;;;;;;16.40;100.00;100739.60;1803445;79;21298;-82
2022/05/13 01:43:12;;;;;;;14.47;4.45;;;;;;;16.48;100.00;100755.27;1806021;79;20893;-82
2022/05/13 01:45:40;;;;;;;10.43;3.80;;;;;;;16.42;100.00;100759.72;1806631;79;20978;-83
2022/05/13 01:48:08;;;;;;;11.65;4.12;;;;;;;16.40;100.00;100767.36;1806553;79;21508;-82
2022/05/13 01:50:37;;;;;;;14.73;4.37;;;;;;;16.34;100.00;100769.34;1806633;78;21208;-82
2022/05/13 01:53:04;;;;;;;12.45;3.60;;;;;;;16.29;100.00;100783.00;1806496;79;21095;-82
2022/05/13 01:55:30;;;;;;;13.83;3.98;;;;;;;16.23;100.00;100781.45;1806494;79;21480;-82
2022/05/13 01:57:56;;;;;;;9.53;3.58;;;;;;;16.03;100.00;100758.90;1806853;78;21008;-82
2022/05/13 02:00:23;;;;;;;12.80;3.52;;;;;;;16.03;100.00;100758.90;1806820;79;20968;-82
2022/05/13 02:05:34;;;;;;;13.35;3.90;;;;;;;16.05;100.00;100781.70;1806502;79;21059;-83
2022/05/13 02:08:00;;;;;;;10.03;3.67;;;;;;;16.03;100.00;100778.45;1806563;79;20934;-83
2022/05/13 02:10:27;;;;;;;14.00;4.10;;;;;;;15.99;100.00;100758.41;1807279;78;20988;-82
2022/05/13 02:12:53;;;;;;;12.43;3.47;;;;;;;15.88;100.00;100742.77;1806998;79;21019;-82
2022/05/13 02:15:19;;;;;;;11.50;4.55;;;;;;;15.93;100.00;100757.66;1806572;79;21194;-83
2022/05/13 02:17:45;;;;;;;14.55;4.05;;;;;;;15.92;100.00;100757.41;1810178;78;20873;-83
2022/05/13 02:20:11;;;;;;;12.73;4.97;;;;;;;15.87;100.00;100749.31;1818021;78;20916;-83
2022/05/13 02:22:37;;;;;;;13.78;4.45;;;;;;;15.83;100.00;100742.30;1817744;78;21508;-83
2022/05/13 02:25:05;;;;;;;16.35;3.87;;;;;;;15.80;100.00;100727.94;1818021;79;20853;-82
2022/05/13 02:27:31;;;;;;;6.83;3.05;;;;;;;15.77;100.00;100737.23;1817922;79;21114;-84
2022/05/13 02:29:57;;;;;;;13.62;3.80;;;;;;;15.76;100.00;100737.75;1817908;77;20956;-82
2022/05/13 02:32:23;;;;;;;11.63;3.80;;;;;;;15.76;100.00;100746.45;1817976;77;20913;-81
2022/05/13 02:34:49;;;;;;;14.00;3.50;;;;;;;15.73;100.00;100750.56;1817892;78;20976;-83
2022/05/13 02:37:15;;;;;;;11.88;3.58;;;;;;;15.74;100.00;100761.70;1817838;77;20868;-81
2022/05/13 02:39:41;;;;;;;11.90;3.40;;;;;;;15.74;100.00;100767.14;1818282;78;21121;-82
2022/05/13 02:42:08;;;;;;;9.40;3.50;;;;;;;15.80;100.00;100773.33;1818114;78;21034;-81
2022/05/13 02:44:33;;;;;;;6.60;3.02;;;;;;;15.82;100.00;100769.75;1817939;78;20843;-81
2022/05/13 02:46:59;;;;;;;10.60;3.22;;;;;;;15.87;100.00;100765.62;1817914;79;21103;-83
2022/05/13 02:49:25;;;;;;;12.95;3.30;;;;;;;15.95;100.00;100755.47;1818037;79;20849;-83
2022/05/13 02:51:51;;;;;;;7.60;3.30;;;;;;;16.09;100.00;100761.80;1817825;78;21849;-81
2022/05/13 02:54:17;;;;;;;12.00;3.12;;;;;;;16.24;100.00;100760.78;1817972;79;20966;-82
2022/05/13 02:56:44;;;;;;;16.97;4.00;;;;;;;16.30;100.00;100750.09;1817965;78;20888;-82
2022/05/13 02:59:11;;;;;;;15.90;3.65;;;;;;;16.55;100.00;100772.01;1818038;79;21452;-83
2022/05/13 03:01:37;;;;;;;10.05;3.15;;;;;;;16.73;100.00;100766.84;1817982;79;20999;-83
2022/05/13 03:04:04;;;;;;;9.33;3.27;;;;;;;16.84;100.00;100768.89;1817820;78;21026;-84
2022/05/13 03:06:30;;;;;;;12.98;3.70;;;;;;;16.94;100.00;100776.88;1817774;79;21000;-83
2022/05/13 03:08:57;;;;;;;8.15;3.47;;;;;;;17.01;100.00;100776.75;1817970;79;21007;-83
2022/05/13 03:11:24;;;;;;;8.60;3.20;;;;;;;17.09;100.00;100786.16;1818232;79;20960;-83
2022/05/13 03:13:52;;;;;;;10.63;3.80;;;;;;;17.20;100.00;100791.66;1797702;79;20918;-82
2022/05/13 03:16:23;;;;;;;11.60;4.20;;;;;;;17.27;100.00;100796.75;1797233;79;21416;-82
2022/05/13 03:18:53;;;;;;;9.45;3.65;;;;;;;17.47;100.00;100800.99;1811480;78;20961;-82
2022/05/13 03:21:19;;;;;;;9.55;3.75;;;;;;;17.60;100.00;100804.30;1809080;77;21012;-84
2022/05/13 03:23:46;;;;;;;10.08;3.58;;;;;;;17.79;100.00;100803.42;1809358;78;21008;-83
2022/05/13 03:26:16;;;;;;;12.45;3.52;;;;;;;18.01;100.00;100799.44;1809330;79;20977;-83
2022/05/13 03:28:42;;;;;;;10.68;3.60;;;;;;;18.14;100.00;100796.42;1809246;79;21099;-82
2022/05/13 03:31:09;;;;;;;18.77;3.60;;;;;;;18.19;100.00;100803.70;1798163;79;21527;-82
2022/05/13 03:33:35;;;;;;;10.88;3.83;;;;;;;18.48;100.00;100815.06;1809388;78;20996;-83
2022/05/13 03:36:02;;;;;;;8.78;3.40;;;;;;;19.17;100.00;100805.80;1809395;78;20930;-84
2022/05/13 03:38:28;;;;;;;10.60;3.72;;;;;;;20.11;100.00;100805.16;1809567;78;21004;-83
2022/05/13 03:40:54;;;;;;;10.15;4.00;;;;;;;20.78;100.00;100811.61;1809515;78;20994;-84
2022/05/13 03:43:20;;;;;;;9.58;3.75;;;;;;;21.63;94.33;100825.23;1809567;79;20932;-85
2022/05/13 03:45:46;;;;;;;8.93;3.75;;;;;;;22.49;88.65;100830.83;1809286;78;20873;-84
2022/05/13 03:48:12;;;;;;;10.60;3.67;;;;;;;23.27;81.46;100826.04;1809391;78;21477;-84
2022/05/13 03:50:43;;;;;;;8.25;3.92;;;;;;;23.99;75.95;100825.09;1809594;78;20992;-84
2022/05/13 03:53:12;;;;;;;16.77;4.08;;;;;;;24.63;68.24;100829.03;1809444;77;21060;-83
2022/05/13 03:55:41;;;;;;;10.18;3.95;;;;;;;25.21;64.32;100827.88;1808635;79;21012;-83
2022/05/13 03:58:08;;;;;;;13.53;3.45;;;;;;;25.57;57.77;100827.66;1809069;78;21051;-84
2022/05/13 04:00:35;;;;;;;10.80;3.50;;;;;;;25.99;55.71;100840.13;1808518;79;21036;-83
2022/05/13 04:03:01;;;;;;;9.40;3.45;;;;;;;26.49;53.22;100843.46;1809164;79;20937;-83
2022/05/13 04:10:56;;;;;;;13.45;4.10;;;;;;;27.89;47.04;100854.44;1809176;79;20996;-83
2022/05/13 04:16:08;;;;;;;9.00;3.90;;;;;;;29.05;43.46;100850.70;1809197;79;20921;-84
2022/05/13 04:18:38;;;;;;;13.22;4.45;;;;;;;29.48;42.15;100848.36;1809518;78;21052;-83
2022/05/13 04:21:07;;;;;;;11.73;4.00;;;;;;;30.04;40.87;100845.86;1807844;79;20988;-84
2022/05/13 04:23:37;;;;;;;13.90;4.17;;;;;;;30.49;39.56;100852.09;1806948;79;21016;-83
2022/05/13 04:26:03;;;;;;;12.35;4.58;;;;;;;31.01;38.77;100861.08;1803598;79;21601;-85
2022/05/13 04:28:29;;;;;;;12.93;4.15;;;;;;;31.41;37.81;100866.97;1803855;79;20801;-86
2022/05/13 04:30:55;;;;;;;10.13;4.17;;;;;;;31.80;36.26;100870.97;1803658;79;21933;-84
2022/05/13 04:33:21;;;;;;;11.48;4.50;;;;;;;31.60;35.97;100872.75;1803676;79;21063;-84
2022/05/13 04:35:47;;;;;;;11.63;4.65;;;;;;;31.42;35.50;100875.52;1803575;79;20865;-83
2022/05/13 04:38:13;;;;;;;15.98;5.60;;;;;;;31.63;35.87;100880.31;1799257;79;20852;-84
2022/05/13 04:40:39;;;;;;;13.30;5.22;;;;;;;32.13;35.12;100878.13;1803826;79;20960;-85
2022/05/13 04:43:06;;;;;;;11.35;4.65;;;;;;;32.80;34.29;100877.16;1803880;79;21071;-84
2022/05/13 04:45:33;;;;;;;18.25;4.92;;;;;;;32.41;33.28;100880.66;1803470;79;20964;-84
2022/05/13 04:48:15;;;;;;;15.05;5.87;;;;;;;31.50;33.26;100875.52;1803685;79;21570;-84
2022/05/13 04:50:46;;;;;;;17.57;5.33;;;;;;;30.50;33.84;100875.94;1803532;79;21090;-84
2022/05/13 04:53:14;;;;;;;20.88;5.22;;;;;;;29.59;34.70;100872.27;1746715;82;21050;-83
2022/05/13 04:55:40;;;;;;;15.10;5.60;;;;;;;28.82;35.55;100877.14;1746368;82;21088;-83
2022/05/13 04:58:07;;;;;;;19.32;5.58;;;;;;;28.19;37.16;100878.64;1745999;82;21618;-83
2022/05/13 05:00:32;;;;;;;16.07;5.45;;;;;;;28.94;37.97;100878.28;1746219;82;21055;-85
2022/05/13 05:02:58;;;;;;;15.48;5.50;;;;;;;30.00;37.75;100877.80;1746194;82;21604;-85
2022/05/13 05:05:25;;;;;;;15.15;4.85;;;;;;;31.02;36.67;100887.72;1746318;82;21063;-83
2022/05/13 05:07:51;;;;;;;12.82;4.60;;;;;;;32.03;35.33;100880.32;1742115;82;21862;-84
2022/05/13 05:10:18;;;;;;;16.05;5.08;;;;;;;32.80;34.29;100884.14;1721458;82;20931;-85
2022/05/13 05:12:45;;;;;;;13.18;4.92;;;;;;;33.49;33.27;100880.38;1746064;82;21015;-86
2022/05/13 05:15:12;;;;;;;10.00;4.72;;;;;;;34.13;32.20;100884.69;1720207;82;21578;-84
2022/05/13 05:17:38;;;;;;;16.05;4.70;;;;;;;34.66;31.90;100876.33;1745924;82;21046;-84
2022/05/13 05:20:05;;;;;;;16.25;5.00;;;;;;;35.16;31.24;100877.08;1746538;82;21692;-85
2022/05/13 05:22:32;;;;;;;14.83;4.80;;;;;;;35.50;30.37;100880.36;1743984;81;21124;-84
2022/05/13 05:24:58;;;;;;;10.70;4.78;;;;;;;35.96;29.87;100886.45;1731008;82;21439;-84
2022/05/13 05:27:24;;;;;;;11.68;4.45;;;;;;;36.51;28.92;100897.06;1731117;82;21005;-86
2022/05/13 05:29:50;;;;;;;15.38;4.10;;;;;;;36.57;28.58;100896.77;1730970;82;21070;-86
2022/05/13 05:32:16;;;;;;;9.58;4.08;;;;;;;36.63;28.13;100900.48;1731084;82;21159;-85
2022/05/13 05:34:42;;;;;;;16.48;4.45;;;;;;;36.65;27.80;100898.83;1731182;82;21040;-84
2022/05/13 05:37:08;;;;;;;7.97;4.05;;;;;;;36.75;27.86;100893.59;1731193;82;20909;-85
2022/05/13 05:39:34;;;;;;;9.85;3.47;;;;;;;37.25;27.15;100896.73;1730914;82;20950;-84
2022/05/13 05:42:00;;;;;;;11.28;4.10;;;;;;;37.22;27.07;100899.02;1731068;82;21048;-85
2022/05/13 05:44:26;;;;;;;8.88;4.33;;;;;;;37.48;26.96;100906.28;1730871;82;22002;-86
2022/05/13 05:46:52;;;;;;;13.30;4.47;;;;;;;37.87;26.45;100910.14;1731021;82;20898;-85
2022/05/13 05:49:19;;;;;;;10.98;4.20;;;;;;;38.05;26.37;100897.03;1748376;79;21497;-85
2022/05/13 05:51:45;;;;;;;12.10;3.83;;;;;;;38.46;25.79;100901.18;1815013;79;21023;-87
2022/05/13 05:57:13;;;;;;;10.82;4.25;;;;;;;38.76;25.26;100899.27;1803600;79;21040;-86
2022/05/13 05:59:43;;;;;;;4.45;3.72;;;;;;;38.99;25.01;100891.80;1803138;79;21018;-85
2022/05/13 06:02:10;;;;;;;10.00;3.98;;;;;;;39.15;24.93;100888.89;1744329;82;21120;-85
2022/05/13 06:04:36;;;;;;;8.50;3.95;;;;;;;39.70;24.70;100890.14;1707206;82;21516;-85
2022/05/13 06:07:07;;;;;;;10.75;4.00;;;;;;;40.60;24.01;100895.66;1744026;80;20974;-86
2022/05/13 06:09:33;;;;;;;7.42;4.37;;;;;;;40.86;23.40;100895.52;1636859;87;21095;-86
2022/05/13 06:12:00;;;;;;;12.50;4.17;;;;;;;41.16;23.10;100900.25;1637155;87;21080;-86
2022/05/13 06:14:27;;;;;;;15.32;5.17;;;;;;;41.39;23.20;100894.04;1636880;87;20987;-86
2022/05/13 06:16:54;;;;;;;10.40;4.30;;;;;;;41.60;22.58;100898.05;1637006;87;21040;-85
2022/05/13 06:19:21;;;;;;;10.25;3.85;;;;;;;41.38;22.47;100891.03;1648518;86;21097;-85
2022/05/13 06:21:47;;;;;;;11.35;4.30;;;;;;;41.77;22.26;100897.14;1656606;86;21134;-84
2022/05/13 06:24:13;;;;;;;10.20;4.33;;;;;;;41.88;21.82;100896.03;1658779;86;21558;-85
2022/05/13 06:26:42;;;;;;;11.70;4.65;;;;;;;41.84;21.86;100898.23;1659152;86;22349;-85
2022/05/13 06:29:08;;;;;;;9.30;4.35;;;;;;;41.90;21.52;100892.13;1658821;85;21099;-84
2022/05/13 06:31:36;;;;;;;12.23;4.17;;;;;;;42.26;21.42;100885.52;1659465;86;21019;-85
2022/05/13 06:34:03;;;;;;;12.23;4.30;;;;;;;42.54;21.31;100888.52;1658854;86;21346;-85
2022/05/13 06:36:31;;;;;;;9.68;3.90;;;;;;;42.76;21.28;100898.23;1659289;86;21078;-87
2022/05/13 06:38:57;;;;;;;8.93;4.37;;;;;;;42.79;20.78;100897.28;1658898;86;21610;-85
2022/05/13 06:41:24;;;;;;;7.17;4.37;;;;;;;42.67;20.60;100892.56;1659324;86;21026;-85
2022/05/13 06:43:51;;;;;;;5.95;4.65;;;;;;;42.92;20.98;100888.59;1659276;86;21605;-85
2022/05/13 06:46:17;;;;;;;11.20;4.58;;;;;;;43.30;20.45;100887.16;1659114;86;21166;-86
2022/05/13 06:48:44;;;;;;;7.95;3.92;;;;;;;43.48;20.09;100894.81;1659114;86;21104;-86
2022/05/13 06:51:10;;;;;;;6.62;4.22;;;;;;;43.69;19.94;100889.48;1659285;86;21074;-85
2022/05/13 06:53:36;;;;;;;9.90;4.00;;;;;;;43.97;19.68;100882.19;1659313;86;20966;-86
2022/05/13 06:56:03;;;;;;;5.42;3.72;;;;;;;44.15;19.53;100879.22;1659401;86;21003;-87
2022/05/13 06:58:29;;;;;;;7.55;4.33;;;;;;;44.24;19.46;100880.38;1664211;84;21190;-85
2022/05/13 07:00:55;;;;;;;5.70;4.33;;;;;;;44.32;18.99;100885.19;1678184;85;21157;-86
2022/05/13 07:03:22;;;;;;;5.47;4.03;;;;;;;44.29;18.94;100892.49;1678478;85;21515;-86
2022/05/13 07:05:48;;;;;;;8.23;4.40;;;;;;;44.25;18.81;100885.59;1701459;81;21031;-85
2022/05/13 07:08:15;;;;;;;9.58;3.90;;;;;;;44.52;18.56;100877.44;1772307;80;21485;-86
2022/05/13 07:10:43;;;;;;;8.45;4.40;;;;;;;44.37;18.48;100880.28;1772322;81;21087;-87
2022/05/13 07:13:12;;;;;;;8.55;4.53;;;;;;;43.90;18.24;100866.93;1772528;81;20923;-86
2022/05/13 07:15:38;;;;;;;8.00;4.50;;;;;;;43.69;18.80;100871.03;1772229;80;20999;-87
2022/05/13 07:18:05;;;;;;;9.28;4.00;;;;;;;43.59;18.68;100863.83;1772530;80;21003;-86
2022/05/13 07:20:31;;;;;;;7.42;3.92;;;;;;;43.64;18.87;100866.66;1772292;81;21495;-86
2022/05/13 07:22:57;;;;;;;9.48;3.85;;;;;;;44.10;18.77;100872.78;1807759;77;21075;-85
2022/05/13 07:25:25;;;;;;;6.67;3.60;;;;;;;44.26;18.66;100872.94;1809529;79;20965;-84
2022/05/13 07:27:51;;;;;;;10.65;3.70;;;;;;;44.37;18.06;100863.87;1809516;78;21012;-85
2022/05/13 07:30:17;;;;;;;21.30;3.90;;;;;;;44.43;18.50;100873.27;1809547;79;21012;-86
2022/05/13 07:32:44;;;;;;;9.60;4.03;;;;;;;44.41;17.99;100882.28;1825665;78;20995;-85
2022/05/13 07:35:10;;;;;;;11.68;4.10;;;;;;;44.13;17.98;100876.06;1809710;78;21090;-86
2022/05/13 07:37:37;;;;;;;8.08;3.85;;;;;;;44.28;18.20;100877.50;1809689;78;20977;-85
2022/05/13 07:42:50;;;;;;;20.25;4.65;;;;;;;44.41;18.12;100882.28;1809162;79;21012;-85
2022/05/13 07:45:16;;;;;;;14.35;3.80;;;;;;;44.03;18.42;100879.47;1809466;79;20980;-84
2022/05/13 07:47:42;;;;;;;10.13;3.85;;;;;;;44.50;18.08;100879.20;1809491;79;21875;-84
2022/05/13 07:50:11;;;;;;;12.78;3.17;;;;;;;44.51;17.99;100880.79;1809359;79;21024;-84
2022/05/13 07:52:40;;;;;;;11.43;3.67;;;;;;;44.60;17.65;100874.36;1809561;78;20976;-86
2022/05/13 07:55:10;;;;;;;10.63;3.50;;;;;;;44.51;17.80;100877.95;1809187;78;21430;-86
2022/05/13 07:57:40;;;;;;;6.87;3.50;;;;;;;44.29;17.96;100874.02;1787047;79;21031;-86
2022/05/13 08:00:25;;;;;;;10.60;3.72;;;;;;;44.17;17.91;100877.29;1786784;79;22005;-86
2022/05/13 08:02:54;;;;;;;13.32;3.47;;;;;;;44.10;17.73;100876.27;1786989;79;20974;-84
2022/05/13 08:05:22;;;;;;;9.48;3.27;;;;;;;43.76;18.43;100874.91;1716019;83;21073;-86
2022/05/13 08:07:49;;;;;;;10.93;3.33;;;;;;;44.19;18.20;100872.69;1715851;83;21030;-84
2022/05/13 08:10:15;;;;;;;10.25;3.72;;;;;;;44.40;18.20;100867.16;1716230;83;20994;-85
2022/05/13 08:12:43;;;;;;;16.85;3.15;;;;;;;44.34;17.74;100870.53;1716073;83;21119;-85
2022/05/13 08:15:09;;;;;;;13.43;3.67;;;;;;;43.95;17.60;100869.13;1715671;83;21002;-85
2022/05/13 08:17:36;;;;;;;15.68;3.52;;;;;;;42.90;18.55;100860.55;1716082;83;21014;-84
2022/05/13 08:20:04;;;;;;;18.50;3.60;;;;;;;43.20;18.66;100860.12;1715939;83;21046;-86
2022/05/13 08:22:30;;;;;;;7.40;3.10;;;;;;;43.32;18.57;100856.26;1716045;83;21100;-85
2022/05/13 08:24:56;;;;;;;10.23;3.35;;;;;;;42.72;18.97;100852.27;1715930;83;21676;-85
2022/05/13 08:27:22;;;;;;;10.03;2.60;;;;;;;42.92;19.33;100847.47;1716030;83;20879;-84
2022/05/13 08:29:48;;;;;;;13.43;3.58;;;;;;;43.34;18.66;100847.28;1716000;83;21093;-86
2022/05/13 08:32:14;;;;;;;13.60;3.15;;;;;;;43.45;18.53;100834.75;1716044;83;21049;-84
2022/05/13 08:34:40;;;;;;;11.40;2.95;;;;;;;43.45;18.67;100837.59;1715833;83;21014;-86
2022/05/13 08:37:07;;;;;;;14.35;3.22;;;;;;;43.58;18.48;100840.20;1716000;83;21232;-85
2022/05/13 08:39:33;;;;;;;9.80;3.05;;;;;;;43.37;18.56;100835.73;1655533;85;21131;-87
2022/05/13 08:42:27;;;;;;;15.28;2.87;;;;;;;42.84;18.90;100852.69;1690436;83;20912;-86
2022/05/13 08:44:54;;;;;;;11.78;2.60;;;;;;;41.25;19.28;100853.60;1690368;84;21071;-84
2022/05/13 08:47:25;;;;;;;9.73;3.00;;;;;;;40.38;20.07;100853.90;1690701;84;21059;-85
2022/05/13 08:50:06;;;;;;;6.80;3.08;;;;;;;39.55;20.62;100848.13;1690613;84;21136;-86
2022/05/13 08:53:07;;;;;;;17.67;2.67;;;;;;;39.18;21.71;100855.55;1677987;85;21059;-84
2022/05/13 08:55:45;;;;;;;17.25;2.67;;;;;;;39.56;21.57;100827.13;1659793;85;21069;-85
2022/05/13 08:58:31;;;;;;;17.92;3.20;;;;;;;38.67;21.67;100839.20;1663985;86;20946;-86
2022/05/13 09:01:01;;;;;;;10.90;2.95;;;;;;;38.71;22.50;100843.50;1672162;85;21088;-85
2022/05/13 09:03:56;;;;;;;9.95;3.10;;;;;;;38.12;22.52;100834.31;1656181;86;21182;-84
2022/05/13 09:06:40;;;;;;;13.78;2.87;;;;;;;37.64;22.90;100839.38;1706672;83;20995;-85
2022/05/13 09:09:11;;;;;;;11.60;3.17;;;;;;;36.84;23.38;100839.01;1657410;86;21011;-85
2022/05/13 09:11:48;;;;;;;8.35;2.70;;;;;;;36.12;24.07;100848.69;1653275;86;21591;-85
2022/05/13 09:14:23;;;;;;;11.63;2.60;;;;;;;35.44;24.78;100852.62;1609262;89;21061;-86
2022/05/13 09:17:05;;;;;;;8.58;2.67;;;;;;;34.66;25.59;100856.73;1623195;88;21127;-84
2022/05/13 09:19:57;;;;;;;9.18;2.30;;;;;;;34.80;27.11;100849.55;1619389;88;22232;-85
2022/05/13 09:22:23;;;;;;;8.88;2.35;;;;;;;36.12;26.25;100839.69;1623237;88;21142;-85
2022/05/13 09:24:49;;;;;;;12.20;2.40;;;;;;;36.36;25.83;100845.23;1623236;88;21161;-85
2022/05/13 09:27:15;;;;;;;14.80;2.92;;;;;;;37.07;25.75;100842.17;1623437;87;21048;-85
2022/05/13 09:29:45;;;;;;;8.05;2.47;;;;;;;37.43;25.03;100851.94;1623198;88;21189;-85
2022/05/13 09:32:17;;;;;;;12.82;2.33;;;;;;;36.99;24.35;100847.91;1623446;88;21073;-84
2022/05/13 09:35:05;;;;;;;13.90;3.08;;;;;;;36.77;24.86;100846.79;1606158;89;21172;-83
2022/05/13 09:37:39;;;;;;;11.48;2.67;;;;;;;36.44;24.86;100845.25;1602106;89;21085;-86
2022/05/13 09:40:19;;;;;;;11.90;2.60;;;;;;;36.15;24.99;100842.21;1530231;93;21119;-84
2022/05/13 09:42:49;;;;;;;11.25;2.75;;;;;;;36.04;25.81;100836.83;1530460;93;21832;-84
2022/05/13 09:45:26;;;;;;;11.00;2.42;;;;;;;36.28;25.86;100846.59;1510578;93;21119;-84
2022/05/13 09:48:13;;;;;;;13.70;3.15;;;;;;;36.59;25.46;100840.97;1530513;93;21026;-85
2022/05/13 09:50:47;;;;;;;13.70;3.33;;;;;;;35.95;25.36;100846.39;1452683;97;21992;-84
2022/05/13 09:53:24;;;;;;;17.27;3.10;;;;;;;35.52;26.39;100850.52;1470690;97;21086;-85
2022/05/13 09:55:55;;;;;;;11.75;2.83;;;;;;;35.62;25.53;100843.95;1453910;98;21201;-83
2022/05/13 09:58:36;;;;;;;17.27;3.85;;;;;;;35.39;25.50;100854.53;1459806;97;21055;-85
2022/05/13 10:01:10;;;;;;;19.32;3.98;;;;;;;34.84;26.04;100850.09;1476628;95;21133;-84
2022/05/13 10:03:38;;;;;;;17.20;3.45;;;;;;;34.32;26.76;100849.70;1476761;97;21571;-83
2022/05/13 10:06:16;;;;;;;13.43;3.83;;;;;;;33.64;27.05;100843.34;1492334;95;21661;-85
2022/05/13 10:08:57;;;;;;;14.90;3.10;;;;;;;32.88;27.81;100856.17;1507059;95;21357;-83
2022/05/13 10:14:30;;;;;;;12.88;3.25;;;;;;;32.25;29.47;100852.60;1508700;92;21237;-85
2022/05/13 10:17:01;;;;;;;20.85;3.42;;;;;;;32.73;29.20;100852.66;1561318;90;21200;-84
2022/05/13 10:19:41;;;;;;;29.12;3.55;;;;;;;32.74;28.89;100843.89;1520190;94;21032;-83
2022/05/13 10:22:19;;;;;;;21.52;3.35;;;;;;;32.37;28.63;100840.81;1509583;93;21611;-82
2022/05/13 10:25:21;;;;;;;23.62;3.20;;;;;;;32.44;28.93;100829.63;1487339;96;21160;-85
2022/05/13 10:27:53;;;;;;;23.38;3.70;;;;;;;32.64;28.20;100832.77;1424137;100;21250;-83
2022/05/13 10:30:31;;;;;;;21.17;3.15;;;;;;;32.96;28.39;100831.20;1379495;104;21570;-84
2022/05/13 10:33:20;;;;;;;11.90;2.72;;;;;;;33.19;27.90;100832.89;1388249;103;21158;-85
2022/05/13 10:36:16;;;;;;;18.10;3.10;;;;;;;33.15;27.69;100828.52;1388289;102;21830;-84
2022/05/13 10:38:59;;;;;;;15.90;3.12;;;;;;;33.32;28.26;100831.78;1388194;103;21146;-84
2022/05/13 10:41:49;;;;;;;22.10;3.42;;;;;;;33.69;27.16;100824.74;1386356;103;21119;-84
2022/05/13 10:44:46;;;;;;;12.82;2.70;;;;;;;33.29;27.58;100833.22;1384704;102;21123;-84
2022/05/13 10:47:33;;;;;;;27.10;3.02;;;;;;;33.38;27.46;100820.36;1383537;103;21154;-83
2022/05/13 10:49:59;;;;;;;18.23;3.00;;;;;;;33.37;27.52;100824.38;1383770;103;21116;-83
2022/05/13 10:53:10;;;;;;;16.62;3.02;;;;;;;33.31;27.46;100823.22;1390267;103;21653;-84
2022/05/13 10:56:05;;;;;;;13.28;3.20;;;;;;;33.43;27.77;100824.73;1390248;103;21088;-86
2022/05/13 10:58:55;;;;;;;20.00;3.72;;;;;;;33.70;27.36;100829.12;1450634;98;21038;-84
2022/05/13 11:01:55;;;;;;;16.23;3.22;;;;;;;33.50;27.47;100816.88;1446694;97;21042;-84
2022/05/13 11:04:35;;;;;;;17.07;2.80;;;;;;;33.45;27.55;100815.34;1506286;94;21207;-85
2022/05/13 11:07:22;;;;;;;16.87;3.20;;;;;;;33.30;27.45;100813.84;1529317;90;21098;-84
2022/05/13 11:09:53;;;;;;;12.13;3.12;;;;;;;33.05;27.88;100809.84;1540806;93;21569;-86
2022/05/13 11:12:39;;;;;;;19.15;3.50;;;;;;;33.19;28.18;100824.50;1545566;91;21085;-86
2022/05/13 11:15:26;;;;;;;15.53;3.27;;;;;;;33.51;27.42;100815.70;1588537;87;20983;-84
2022/05/13 11:18:16;;;;;;;20.77;3.35;;;;;;;33.59;27.36;100830.63;1634737;87;21090;-85
2022/05/13 11:21:14;;;;;;;19.23;3.15;;;;;;;33.55;26.98;100813.69;1628339;88;21019;-85
2022/05/13 11:27:20;;;;;;;23.90;3.52;;;;;;;32.94;27.39;100812.66;1657517;86;21031;-84
2022/05/13 11:30:04;;;;;;;23.47;3.22;;;;;;;33.00;27.05;100806.87;1667381;86;20986;-83
2022/05/13 11:32:54;;;;;;;26.10;3.08;;;;;;;33.00;26.68;100804.08;1666954;86;21101;-85
2022/05/13 11:35:43;;;;;;;17.20;2.95;;;;;;;32.97;27.13;100804.86;1666869;85;20966;-84
2022/05/13 11:38:17;;;;;;;19.17;3.17;;;;;;;33.04;26.37;100812.45;1666840;85;20982;-83
2022/05/13 11:41:00;;;;;;;27.05;3.30;;;;;;;32.82;26.23;100810.34;1661556;85;21030;-83
2022/05/13 11:43:51;;;;;;;31.23;3.72;;;;;;;32.79;26.32;100814.74;1664514;86;21025;-82
2022/05/13 11:46:55;;;;;;;29.90;3.27;;;;;;;32.72;25.99;100808.60;1667225;84;21202;-82
2022/05/13 11:49:31;;;;;;;13.55;3.67;;;;;;;32.44;26.14;100823.44;1619490;88;21685;-83
2022/05/13 11:52:15;;;;;;;19.87;3.20;;;;;;;32.10;26.26;100816.98;1619718;88;21637;-84
2022/05/13 11:54:43;;;;;;;25.40;2.87;;;;;;;31.96;26.71;100825.97;1619660;88;21110;-84
2022/05/13 11:57:24;;;;;;;22.77;3.58;;;;;;;31.84;26.33;100819.58;1602570;87;21052;-84